Time;durP1;ratioP1;P1;durP2;ratioP2;P2;SDS_P1;SDS_P2;PMS_P1;PMS_P2;Temp;Humidity;BMP_temperature;BMP_pressure;BME280_temperature;BME280_humidity;BME280_pressure;Samples;Min_cycle;Max_cycle;Signal;HPM_P1;HPM_P2
2021/12/12 00:00:54;;;;;;;75.13;42.13;;;;;;;;;;6157942;23;20488;-77
2021/12/12 00:03:39;;;;;;;79.50;42.88;;;;;;;;;;6116731;23;20385;-77
2021/12/12 00:06:11;;;;;;;78.57;42.10;;;;;;;;;;6161437;23;20374;-76
2021/12/12 00:08:40;;;;;;;69.85;40.80;;;;;;;;;;6187409;23;20374;-76
2021/12/12 00:11:11;;;;;;;70.35;40.65;;;;;;;;;;6162096;23;20400;-76
2021/12/12 00:13:45;;;;;;;73.47;40.30;;;;;;;;;;6162444;23;20385;-76
2021/12/12 00:16:12;;;;;;;75.63;39.80;;;;;;;;;;6161380;23;20373;-76
2021/12/12 00:18:41;;;;;;;71.28;40.60;;;;;;;;;;6162659;23;20394;-76
2021/12/12 00:21:12;;;;;;;72.10;38.50;;;;;;;;;;6161532;23;20361;-76
2021/12/12 00:23:39;;;;;;;71.88;40.33;;;;;;;;;;6163011;23;20739;-77
2021/12/12 00:26:09;;;;;;;64.40;38.22;;;;;;;;;;6159837;23;20374;-77
2021/12/12 00:28:36;;;;;;;67.03;38.93;;;;;;;;;;6162595;23;20453;-76
2021/12/12 00:31:14;;;;;;;69.43;38.23;;;;;;;;;;6165452;23;20364;-77
2021/12/12 00:33:42;;;;;;;64.23;37.27;;;;;;;;;;6190116;23;20368;-76
2021/12/12 00:36:16;;;;;;;69.13;37.35;;;;;;;;;;6164430;23;20369;-76
2021/12/12 00:38:43;;;;;;;69.10;38.13;;;;;;;;;;6164729;23;20417;-76
2021/12/12 00:41:12;;;;;;;61.50;36.85;;;;;;;;;;6164681;23;20420;-77
2021/12/12 00:43:49;;;;;;;59.15;35.95;;;;;;;;;;6140223;23;20411;-76
2021/12/12 00:46:17;;;;;;;60.50;34.10;;;;;;;;;;6164317;23;20661;-76
2021/12/12 00:48:44;;;;;;;66.00;36.22;;;;;;;;;;6163871;23;20376;-76
2021/12/12 00:51:12;;;;;;;62.30;36.00;;;;;;;;;;6164580;23;20862;-76
2021/12/12 00:53:42;;;;;;;63.15;36.28;;;;;;;;;;6184175;23;20475;-77
2021/12/12 00:56:09;;;;;;;63.47;35.95;;;;;;;;;;6133631;23;20471;-77
2021/12/12 00:58:35;;;;;;;65.13;35.95;;;;;;;;;;6182164;23;20393;-77
2021/12/12 01:01:05;;;;;;;63.20;34.75;;;;;;;;;;6157699;23;20889;-76
2021/12/12 01:03:32;;;;;;;58.90;34.08;;;;;;;;;;6157273;23;20404;-77
2021/12/12 01:05:59;;;;;;;60.10;34.77;;;;;;;;;;6156056;23;20493;-76
2021/12/12 01:08:26;;;;;;;63.05;34.15;;;;;;;;;;6157295;23;20830;-76
2021/12/12 01:10:55;;;;;;;62.90;33.53;;;;;;;;;;6182173;23;20756;-77
2021/12/12 01:13:23;;;;;;;58.78;33.10;;;;;;;;;;6181833;23;20376;-76
2021/12/12 01:15:54;;;;;;;56.03;32.63;;;;;;;;;;6158328;23;20384;-76
2021/12/12 01:18:24;;;;;;;59.38;34.28;;;;;;;;;;6157361;23;20393;-77
2021/12/12 01:20:57;;;;;;;60.50;34.72;;;;;;;;;;6157361;23;20373;-77
2021/12/12 01:23:26;;;;;;;63.55;36.42;;;;;;;;;;6182504;23;20370;-76
2021/12/12 01:25:53;;;;;;;63.72;33.90;;;;;;;;;;6182802;23;20369;-78
2021/12/12 01:28:21;;;;;;;64.83;35.10;;;;;;;;;;6181427;23;20847;-77
2021/12/12 01:30:48;;;;;;;60.95;33.97;;;;;;;;;;6156723;23;20745;-77
2021/12/12 01:33:26;;;;;;;59.97;34.95;;;;;;;;;;6156798;23;20365;-77
2021/12/12 01:35:52;;;;;;;61.80;34.63;;;;;;;;;;6135348;23;20369;-76
2021/12/12 01:41:04;;;;;;;67.18;35.50;;;;;;;;;;6161116;23;20369;-77
2021/12/12 01:43:37;;;;;;;65.25;34.53;;;;;;;;;;6156055;23;20464;-77
2021/12/12 01:46:12;;;;;;;70.88;36.97;;;;;;;;;;6182280;23;20415;-79
2021/12/12 01:48:46;;;;;;;69.30;37.15;;;;;;;;;;6181110;23;20373;-77
2021/12/12 01:51:13;;;;;;;68.78;37.10;;;;;;;;;;6182184;23;20377;-78
2021/12/12 01:53:41;;;;;;;63.65;35.60;;;;;;;;;;6132861;23;20369;-78
2021/12/12 01:56:20;;;;;;;63.30;36.67;;;;;;;;;;6182864;23;20370;-77
2021/12/12 01:58:48;;;;;;;69.70;36.73;;;;;;;;;;6181476;23;20870;-78
2021/12/12 02:01:18;;;;;;;67.63;35.00;;;;;;;;;;6158286;23;20400;-78
2021/12/12 02:03:48;;;;;;;68.50;34.25;;;;;;;;;;6181436;23;20707;-77
2021/12/12 02:06:16;;;;;;;59.00;33.05;;;;;;;;;;6156814;23;20453;-78
2021/12/12 02:08:42;;;;;;;64.85;33.67;;;;;;;;;;6156389;23;20692;-75
2021/12/12 02:11:16;;;;;;;61.47;33.67;;;;;;;;;;6157418;23;20373;-77
2021/12/12 02:13:44;;;;;;;63.10;32.55;;;;;;;;;;6181866;23;20843;-77
2021/12/12 02:16:10;;;;;;;68.38;32.95;;;;;;;;;;6181935;23;20408;-78
2021/12/12 02:18:39;;;;;;;59.05;32.47;;;;;;;;;;6156399;23;20708;-77
2021/12/12 02:21:30;;;;;;;60.73;33.10;;;;;;;;;;6182870;23;20453;-79
2021/12/12 02:35:08;;;;;;;59.33;32.88;;;;;;;;;;6181047;23;20460;-78
2021/12/12 02:35:20;;;;;;;59.63;32.67;;;;;;;;;;6181726;23;20933;-79
2021/12/12 02:37:52;;;;;;;56.00;31.55;;;;;;;;;;6181486;23;20401;-78
2021/12/12 02:40:21;;;;;;;63.75;33.80;;;;;;;;;;6156905;23;20925;-78
2021/12/12 02:42:47;;;;;;;73.63;36.58;;;;;;;;;;6182577;23;20369;-79
2021/12/12 02:45:16;;;;;;;76.40;38.97;;;;;;;;;;6156902;23;20365;-79
2021/12/12 02:47:45;;;;;;;66.40;34.43;;;;;;;;;;6182252;23;20516;-79
2021/12/12 02:50:13;;;;;;;66.57;34.65;;;;;;;;;;6182125;23;20452;-79
2021/12/12 02:52:43;;;;;;;62.85;34.22;;;;;;;;;;6156959;23;20369;-78
2021/12/12 02:55:13;;;;;;;65.68;34.65;;;;;;;;;;6181819;23;20913;-78
2021/12/12 02:57:40;;;;;;;125.85;42.65;;;;;;;;;;6156242;23;20373;-77
2021/12/12 03:00:08;;;;;;;64.22;33.90;;;;;;;;;;6155726;23;20520;-77
2021/12/12 03:02:42;;;;;;;79.00;37.47;;;;;;;;;;6161027;23;20365;-78
2021/12/12 03:05:08;;;;;;;65.85;35.58;;;;;;;;;;6185873;23;20450;-80
2021/12/12 03:07:37;;;;;;;56.67;33.45;;;;;;;;;;6187364;23;20359;-79
2021/12/12 03:10:05;;;;;;;62.83;32.80;;;;;;;;;;6161229;23;20395;-79
2021/12/12 03:12:33;;;;;;;54.45;32.13;;;;;;;;;;6162512;23;20849;-79
2021/12/12 03:15:19;;;;;;;63.13;33.83;;;;;;;;;;6161465;23;20367;-79
2021/12/12 03:17:46;;;;;;;67.65;35.35;;;;;;;;;;6160007;23;21022;-79
2021/12/12 03:20:23;;;;;;;67.80;34.15;;;;;;;;;;6186648;23;20853;-79
2021/12/12 03:22:50;;;;;;;68.53;35.90;;;;;;;;;;6162301;23;20383;-79
2021/12/12 03:25:17;;;;;;;67.88;35.42;;;;;;;;;;6160101;23;20371;-79
2021/12/12 03:27:43;;;;;;;56.90;32.95;;;;;;;;;;6161963;23;20443;-79
2021/12/12 03:30:15;;;;;;;62.20;33.97;;;;;;;;;;6186052;23;20454;-79
2021/12/12 03:32:42;;;;;;;55.00;31.95;;;;;;;;;;6136999;23;20450;-78
2021/12/12 03:35:11;;;;;;;58.30;33.00;;;;;;;;;;6161489;23;20845;-78
2021/12/12 03:37:37;;;;;;;49.42;30.17;;;;;;;;;;6185326;23;20936;-78
2021/12/12 03:40:14;;;;;;;67.53;34.42;;;;;;;;;;6160500;23;20387;-78
2021/12/12 03:42:44;;;;;;;66.70;30.60;;;;;;;;;;6161908;23;20698;-78
2021/12/12 03:45:13;;;;;;;46.50;28.87;;;;;;;;;;6186859;23;20864;-82
2021/12/12 03:47:49;;;;;;;47.72;27.95;;;;;;;;;;6188189;23;20399;-80
2021/12/12 03:50:19;;;;;;;45.63;28.60;;;;;;;;;;6163338;23;20378;-82
2021/12/12 03:52:46;;;;;;;148.00;39.50;;;;;;;;;;6192925;23;20367;-83
2021/12/12 03:55:13;;;;;;;66.00;32.37;;;;;;;;;;6165610;23;20833;-82
2021/12/12 03:57:42;;;;;;;67.43;30.27;;;;;;;;;;6187632;23;20392;-82
2021/12/12 04:00:17;;;;;;;54.35;29.20;;;;;;;;;;6186119;23;20391;-82
2021/12/12 04:02:49;;;;;;;57.58;29.67;;;;;;;;;;6187670;23;20417;-82
2021/12/12 04:05:17;;;;;;;80.78;34.97;;;;;;;;;;6186641;23;20371;-82
2021/12/12 04:07:44;;;;;;;65.97;30.38;;;;;;;;;;6163039;23;20364;-82
2021/12/12 04:10:12;;;;;;;268.63;48.40;;;;;;;;;;6161375;23;20367;-82
2021/12/12 04:12:41;;;;;;;179.27;42.33;;;;;;;;;;6162945;23;20379;-83
2021/12/12 04:15:07;;;;;;;89.45;34.00;;;;;;;;;;6162012;23;20368;-82
2021/12/12 04:17:36;;;;;;;127.45;33.75;;;;;;;;;;6162900;23;20437;-83
2021/12/12 04:20:06;;;;;;;198.18;39.80;;;;;;;;;;6186809;23;20371;-82
2021/12/12 04:22:33;;;;;;;69.70;31.03;;;;;;;;;;6163008;23;20431;-82
2021/12/12 04:24:59;;;;;;;162.35;37.60;;;;;;;;;;6162299;23;20715;-82
2021/12/12 04:27:26;;;;;;;224.70;43.80;;;;;;;;;;6186803;23;20363;-82
2021/12/12 04:29:53;;;;;;;135.57;36.37;;;;;;;;;;6162212;23;20880;-82
2021/12/12 04:32:21;;;;;;;201.17;40.63;;;;;;;;;;6187730;23;20881;-82
2021/12/12 04:34:52;;;;;;;159.87;36.83;;;;;;;;;;6187528;23;20371;-83
2021/12/12 04:37:19;;;;;;;183.82;37.83;;;;;;;;;;6162604;23;20582;-82
2021/12/12 04:39:52;;;;;;;248.18;42.55;;;;;;;;;;6187361;23;20388;-83
2021/12/12 04:42:25;;;;;;;282.38;45.22;;;;;;;;;;6187076;23;20364;-83
2021/12/12 04:44:54;;;;;;;37.30;25.48;;;;;;;;;;6162096;23;20374;-83
2021/12/12 04:50:32;;;;;;;271.40;39.58;;;;;;;;;;6186865;23;20372;-83
2021/12/12 04:53:08;;;;;;;38.05;24.55;;;;;;;;;;6161661;23;20573;-83
2021/12/12 04:55:46;;;;;;;38.28;24.80;;;;;;;;;;6186595;23;20429;-83
2021/12/12 04:58:23;;;;;;;72.15;26.85;;;;;;;;;;6186528;23;20454;-83
2021/12/12 05:00:55;;;;;;;300.07;37.90;;;;;;;;;;6161492;23;20367;-83
2021/12/12 05:03:41;;;;;;;33.95;21.30;;;;;;;;;;6162298;23;20379;-83
2021/12/12 05:06:08;;;;;;;32.38;22.60;;;;;;;;;;6162502;23;20410;-84
2021/12/12 05:08:56;;;;;;;32.20;21.48;;;;;;;;;;6163389;23;20685;-77
2021/12/12 05:11:29;;;;;;;79.60;25.20;;;;;;;;;;6161371;23;20606;-78
2021/12/12 05:14:03;;;;;;;28.27;20.25;;;;;;;;;;6161819;23;20367;-78
2021/12/12 05:16:32;;;;;;;27.20;19.45;;;;;;;;;;6212977;23;20367;-79
2021/12/12 05:19:12;;;;;;;28.58;19.65;;;;;;;;;;6164967;23;20387;-79
2021/12/12 05:21:46;;;;;;;33.50;20.37;;;;;;;;;;6164115;23;20459;-79
2021/12/12 05:24:16;;;;;;;33.60;21.13;;;;;;;;;;6163725;23;20928;-79
2021/12/12 05:27:05;;;;;;;24.90;18.63;;;;;;;;;;6162652;23;20363;-78
2021/12/12 05:29:39;;;;;;;30.10;20.60;;;;;;;;;;6144640;23;20371;-77
2021/12/12 05:32:06;;;;;;;32.25;20.38;;;;;;;;;;6161433;23;20378;-78
2021/12/12 05:34:35;;;;;;;53.27;23.73;;;;;;;;;;6163221;23;20455;-78
2021/12/12 05:37:01;;;;;;;32.33;22.17;;;;;;;;;;6162096;23;20368;-78
2021/12/12 05:39:31;;;;;;;32.78;22.25;;;;;;;;;;6214319;23;21011;-79
2021/12/12 05:41:57;;;;;;;45.25;24.73;;;;;;;;;;6161458;23;20370;-78
2021/12/12 05:44:28;;;;;;;165.97;32.63;;;;;;;;;;6162803;23;20364;-78
2021/12/12 05:46:55;;;;;;;86.82;27.17;;;;;;;;;;6161491;23;20364;-78
2021/12/12 05:49:21;;;;;;;38.13;24.55;;;;;;;;;;6187157;23;20371;-79
2021/12/12 05:51:47;;;;;;;79.43;26.35;;;;;;;;;;6161707;23;20375;-79
2021/12/12 05:54:13;;;;;;;230.77;38.38;;;;;;;;;;6137818;23;20386;-78
2021/12/12 05:56:43;;;;;;;172.32;32.50;;;;;;;;;;6163139;23;20356;-79
2021/12/12 05:59:12;;;;;;;37.35;23.35;;;;;;;;;;6162993;23;20383;-82
2021/12/12 06:01:39;;;;;;;39.88;24.45;;;;;;;;;;6162043;23;20841;-83
2021/12/12 06:04:08;;;;;;;104.10;28.70;;;;;;;;;;6163753;23;20709;-83
2021/12/12 06:06:42;;;;;;;172.02;33.15;;;;;;;;;;6163867;23;20359;-84
2021/12/12 06:09:09;;;;;;;42.37;24.47;;;;;;;;;;6164906;23;20352;-83
2021/12/12 06:11:45;;;;;;;42.20;26.30;;;;;;;;;;6189344;23;20975;-84
2021/12/12 06:14:12;;;;;;;41.90;25.92;;;;;;;;;;6165143;23;20368;-83
2021/12/12 06:16:38;;;;;;;137.07;32.10;;;;;;;;;;6164456;23;20367;-84
2021/12/12 06:19:23;;;;;;;201.43;36.33;;;;;;;;;;6163798;23;20467;-82
2021/12/12 06:21:51;;;;;;;60.17;28.25;;;;;;;;;;6189006;23;20374;-83
2021/12/12 06:24:17;;;;;;;46.05;27.35;;;;;;;;;;6164092;23;20457;-82
2021/12/12 06:26:43;;;;;;;50.67;28.42;;;;;;;;;;6188236;23;20446;-83
2021/12/12 06:29:10;;;;;;;190.30;36.83;;;;;;;;;;6161064;23;20402;-82
2021/12/12 06:31:45;;;;;;;354.70;46.30;;;;;;;;;;6163312;23;20368;-83
2021/12/12 06:34:12;;;;;;;53.85;28.67;;;;;;;;;;6163108;23;20372;-83
2021/12/12 06:36:38;;;;;;;50.93;28.20;;;;;;;;;;6163684;23;20457;-83
2021/12/12 06:39:07;;;;;;;72.70;29.83;;;;;;;;;;6186980;23;20387;-83
2021/12/12 06:41:35;;;;;;;290.58;41.90;;;;;;;;;;6163780;23;20721;-83
2021/12/12 06:44:03;;;;;;;45.38;26.85;;;;;;;;;;6162283;23;20375;-84
2021/12/12 06:46:30;;;;;;;49.47;28.13;;;;;;;;;;6188389;23;20372;-84
2021/12/12 06:48:57;;;;;;;57.85;29.55;;;;;;;;;;6139414;23;20725;-84
2021/12/12 06:51:26;;;;;;;169.63;35.80;;;;;;;;;;6161917;23;20372;-84
2021/12/12 06:53:52;;;;;;;46.20;26.20;;;;;;;;;;6163087;23;20880;-84
2021/12/12 06:56:19;;;;;;;49.35;27.70;;;;;;;;;;6188711;23;20359;-84
2021/12/12 06:58:46;;;;;;;47.45;27.52;;;;;;;;;;6162638;23;20392;-84
2021/12/12 07:01:23;;;;;;;96.47;31.13;;;;;;;;;;6162567;23;20370;-84
2021/12/12 07:03:50;;;;;;;113.00;30.73;;;;;;;;;;6161814;23;20483;-84
2021/12/12 07:06:20;;;;;;;47.65;26.48;;;;;;;;;;6163914;23;20667;-83
2021/12/12 07:08:46;;;;;;;51.50;28.13;;;;;;;;;;6138259;23;20429;-85
2021/12/12 07:11:15;;;;;;;45.50;26.00;;;;;;;;;;6164589;23;20430;-84
2021/12/12 07:13:44;;;;;;;70.30;28.43;;;;;;;;;;6162506;23;20456;-84
2021/12/12 07:16:10;;;;;;;103.07;31.77;;;;;;;;;;6188423;23;20379;-85
2021/12/12 07:18:37;;;;;;;50.60;27.10;;;;;;;;;;6163078;23;20762;-85
2021/12/12 07:21:10;;;;;;;50.70;27.65;;;;;;;;;;6187764;23;20367;-85
2021/12/12 07:23:36;;;;;;;68.80;31.00;;;;;;;;;;6188233;23;20458;-84
2021/12/12 07:26:04;;;;;;;55.55;28.73;;;;;;;;;;6188936;23;20447;-85
2021/12/12 07:28:30;;;;;;;57.13;28.73;;;;;;;;;;6164126;23;20401;-83
2021/12/12 07:31:17;;;;;;;58.08;30.10;;;;;;;;;;6163911;23;20378;-85
2021/12/12 07:33:44;;;;;;;53.60;27.90;;;;;;;;;;6189619;23;20367;-84
2021/12/12 07:36:11;;;;;;;101.95;31.80;;;;;;;;;;6163513;23;20368;-84
2021/12/12 07:38:38;;;;;;;130.07;33.10;;;;;;;;;;6188561;23;20387;-84
2021/12/12 07:41:06;;;;;;;145.73;34.60;;;;;;;;;;6139364;23;20363;-84
2021/12/12 07:43:33;;;;;;;137.68;33.53;;;;;;;;;;6187755;23;20402;-84
2021/12/12 07:46:00;;;;;;;128.20;33.87;;;;;;;;;;6164791;23;20833;-86
2021/12/12 07:48:26;;;;;;;163.95;38.10;;;;;;;;;;6188028;23;20382;-84
2021/12/12 07:50:53;;;;;;;162.00;34.63;;;;;;;;;;6163226;23;20371;-86
2021/12/12 07:53:19;;;;;;;58.05;28.92;;;;;;;;;;6139395;23;20371;-88
2021/12/12 07:55:47;;;;;;;56.58;28.27;;;;;;;;;;6189021;23;20367;-87
2021/12/12 07:58:15;;;;;;;176.05;38.22;;;;;;;;;;6168502;23;20371;-90
2021/12/12 08:00:44;;;;;;;212.20;40.08;;;;;;;;;;6198810;23;20431;-90
2021/12/12 08:03:13;;;;;;;61.03;29.45;;;;;;;;;;6179315;23;20857;-90
2021/12/12 08:05:50;;;;;;;51.15;27.15;;;;;;;;;;6183504;23;20363;-91
2021/12/12 08:08:19;;;;;;;79.80;31.42;;;;;;;;;;6175886;23;20364;-90
2021/12/12 08:10:56;;;;;;;213.50;37.35;;;;;;;;;;6171788;23;20372;-91
2021/12/12 08:13:23;;;;;;;137.20;33.55;;;;;;;;;;6200202;23;20398;-90
2021/12/12 08:15:50;;;;;;;58.63;28.73;;;;;;;;;;6168369;23;21126;-89
2021/12/12 08:18:39;;;;;;;65.18;28.77;;;;;;;;;;6172330;23;20383;-90
2021/12/12 08:21:10;;;;;;;86.32;32.00;;;;;;;;;;6178169;23;20374;-90
2021/12/12 08:26:46;;;;;;;60.17;28.17;;;;;;;;;;6208885;23;20375;-92
2021/12/12 08:29:30;;;;;;;62.78;29.13;;;;;;;;;;6210806;23;20375;-90
2021/12/12 08:35:38;;;;;;;71.13;31.70;;;;;;;;;;6233384;23;20383;-90
2021/12/12 08:38:06;;;;;;;70.78;31.52;;;;;;;;;;6191047;23;20425;-89
2021/12/12 08:40:34;;;;;;;97.28;33.22;;;;;;;;;;6165648;23;20376;-90
2021/12/12 08:43:00;;;;;;;211.27;40.60;;;;;;;;;;6166176;23;20371;-90
2021/12/12 08:45:28;;;;;;;77.43;32.35;;;;;;;;;;6167479;23;20367;-86
2021/12/12 08:48:02;;;;;;;74.90;32.53;;;;;;;;;;6188407;23;20374;-84
2021/12/12 08:50:36;;;;;;;100.65;34.85;;;;;;;;;;6163918;23;20544;-83
2021/12/12 08:53:03;;;;;;;109.95;36.25;;;;;;;;;;6163801;23;20725;-85
2021/12/12 08:55:36;;;;;;;82.68;34.67;;;;;;;;;;6165941;23;21157;-84
2021/12/12 08:58:17;;;;;;;80.30;34.40;;;;;;;;;;6165708;23;20682;-84
2021/12/12 09:00:49;;;;;;;117.85;38.30;;;;;;;;;;6165524;23;20367;-84
2021/12/12 09:03:19;;;;;;;217.73;44.67;;;;;;;;;;6191200;23;20387;-84
2021/12/12 09:05:49;;;;;;;110.25;38.72;;;;;;;;;;6191313;23;20382;-85
2021/12/12 09:08:23;;;;;;;100.78;38.33;;;;;;;;;;6191034;23;20371;-85
2021/12/12 09:10:59;;;;;;;89.63;36.93;;;;;;;;;;6146633;23;20383;-85
2021/12/12 09:13:46;;;;;;;113.57;39.78;;;;;;;;;;6168521;23;20912;-85
2021/12/12 09:16:16;;;;;;;160.95;43.85;;;;;;;;;;6188242;23;20364;-84
2021/12/12 09:18:48;;;;;;;115.50;42.83;;;;;;;;;;6164283;23;20391;-85
2021/12/12 09:21:26;;;;;;;130.83;43.57;;;;;;;;;;6164343;23;20940;-86
2021/12/12 09:24:10;;;;;;;124.78;42.17;;;;;;;;;;6166075;23;20821;-87
2021/12/12 09:26:38;;;;;;;186.20;47.58;;;;;;;;;;6164811;23;20455;-86
2021/12/12 09:29:16;;;;;;;112.63;41.45;;;;;;;;;;6165577;23;20678;-85
2021/12/12 09:31:53;;;;;;;118.88;42.38;;;;;;;;;;6165413;23;20415;-87
2021/12/12 09:34:31;;;;;;;145.00;44.42;;;;;;;;;;6165488;23;20462;-87
2021/12/12 09:36:59;;;;;;;303.02;54.53;;;;;;;;;;6166413;23;20367;-88
2021/12/12 09:39:32;;;;;;;134.82;45.33;;;;;;;;;;6164943;23;20455;-88
2021/12/12 09:42:14;;;;;;;130.70;44.10;;;;;;;;;;6166811;23;20856;-88
2021/12/12 09:44:43;;;;;;;123.22;42.60;;;;;;;;;;6165436;23;20471;-85
2021/12/12 09:47:30;;;;;;;141.68;43.30;;;;;;;;;;6165571;23;20364;-87
2021/12/12 09:53:35;;;;;;;115.03;40.83;;;8.10;99.90;;;;;;6189931;23;20833;-85
2021/12/12 09:56:12;;;;;;;114.50;42.20;;;;;;;;;;6165731;23;20368;-88
2021/12/12 09:58:44;;;;;;;125.00;41.45;;;;;;;;;;6164745;23;20469;-87
2021/12/12 10:01:19;;;;;;;119.90;40.60;;;;;;;;;;6189131;23;20450;-86
2021/12/12 10:03:48;;;;;;;115.32;40.92;;;;;;;;;;6159074;23;20385;-86
2021/12/12 10:06:41;;;;;;;132.35;41.47;;;;;;;;;;6184831;23;20385;-87
2021/12/12 10:09:07;;;;;;;123.07;40.95;;;;;;;;;;6139783;23;20373;-84
2021/12/12 10:11:44;;;;;;;153.50;45.53;;;;;;;;;;6160305;23;20369;-84
2021/12/12 10:14:29;;;;;;;295.17;54.03;;;;;;;;;;6159632;23;20376;-84
2021/12/12 10:17:04;;;;;;;153.43;45.78;;;;;;;;;;6161003;23;20384;-87
2021/12/12 10:19:38;;;;;;;120.13;41.58;;;;;;;;;;6160687;23;20389;-87
2021/12/12 10:22:10;;;;;;;363.33;58.83;;;;;;;;;;6160710;23;20373;-88
2021/12/12 10:24:39;;;;;;;116.15;42.15;;;;;;;;;;6159934;23;20381;-89
2021/12/12 10:27:09;;;;;;;124.60;39.97;;;;;;;;;;6159322;23;20372;-87
2021/12/12 10:29:39;;;;;;;124.82;42.47;;;;;;;;;;6160031;23;20377;-87
2021/12/12 10:32:14;;;;;;;139.70;41.80;;;;;;;;;;6161390;23;20842;-89
2021/12/12 10:34:46;;;;;;;157.13;43.67;;;;;;;;;;6161075;23;20451;-89
2021/12/12 10:37:18;;;;;;;106.28;39.22;;;;;;;;;;6161756;23;20400;-88
2021/12/12 10:40:04;;;;;;;99.68;38.42;;;;;;;;;;6162687;23;20396;-88
2021/12/12 10:42:33;;;;;;;109.20;37.60;;;;;;;;;;6161029;23;20362;-88
2021/12/12 10:45:02;;;;;;;102.95;37.35;;;;;;;;;;6161559;23;20444;-86
2021/12/12 10:47:47;;;;;;;94.53;36.63;;;;;;;;;;6161675;23;20365;-88
2021/12/12 10:50:18;;;;;;;95.07;36.25;;;;;;;;;;6185568;23;20377;-87
2021/12/12 10:53:03;;;;;;;101.55;36.70;;;;;;;;;;6163034;23;20369;-90
2021/12/12 10:55:33;;;;;;;175.83;40.53;;;;;;;;;;6189115;23;20759;-87
2021/12/12 10:58:07;;;;;;;92.85;35.63;;;;;;;;;;6162451;23;20400;-88
2021/12/12 11:00:40;;;;;;;89.07;34.70;;;;;;;;;;6161780;23;20389;-88
2021/12/12 11:03:08;;;;;;;98.03;36.15;;;;;;;;;;6166384;23;20388;-89
2021/12/12 11:05:44;;;;;;;88.05;34.83;;;;;;;;;;6163932;23;20383;-79
2021/12/12 11:08:23;;;;;;;114.32;39.17;;;;;;;;;;6163951;23;20433;-81
2021/12/12 11:10:50;;;;;;;85.60;34.25;;;;;;;;;;6162322;23;20379;-83
2021/12/12 11:13:22;;;;;;;85.53;34.97;;;;;;;;;;6139250;23;20451;-79
2021/12/12 11:15:53;;;;;;;82.00;33.97;;;;;;;;;;6187511;23;20371;-80
2021/12/12 11:18:35;;;;;;;76.97;33.47;;;;;;;;;;6188127;23;20450;-88
2021/12/12 11:21:03;;;;;;;111.30;34.45;;;;;;;;;;6163774;23;20371;-86
2021/12/12 11:23:34;;;;;;;84.95;33.25;;;;;;;;;;6186923;23;20364;-80
2021/12/12 11:26:09;;;;;;;71.73;31.30;;;;;;;;;;6162835;23;20367;-80
2021/12/12 11:28:54;;;;;;;74.38;32.33;;;;;;;;;;6163962;23;20884;-83
2021/12/12 11:31:26;;;;;;;72.82;31.95;;;;;;;;;;6171362;23;20363;-89
2021/12/12 11:33:53;;;;;;;229.02;42.42;;;;;;;;;;6166875;23;20437;-88
2021/12/12 11:36:22;;;;;;;68.13;30.00;;;;;;;;;;6168508;23;20464;-89
2021/12/12 11:38:49;;;;;;;65.90;29.92;;;;;;;;;;6166727;23;20837;-89
2021/12/12 11:41:18;;;;;;;61.63;28.40;;;;;;;;;;6193505;23;20370;-90
2021/12/12 11:44:07;;;;;;;75.53;31.30;;;;;;;;;;6166467;23;20903;-89
2021/12/12 11:46:36;;;;;;;66.38;30.20;;;;;;;;;;6166277;23;20374;-89
2021/12/12 11:49:11;;;;;;;69.78;29.88;;;;;;;;;;6166963;23;20830;-91
2021/12/12 11:51:39;;;;;;;62.92;29.08;;;;;;;;;;6166694;23;20367;-92
2021/12/12 11:54:09;;;;;;;74.47;30.10;;;;;;;;;;6167422;23;20374;-92
2021/12/12 11:56:47;;;;;;;131.70;34.47;;;;;;;;;;6168776;23;20566;-91
2021/12/12 11:59:25;;;;;;;84.80;33.17;;;;;;;;;;6168240;23;20391;-90
2021/12/12 12:01:51;;;;;;;67.90;29.38;;;;;;;;;;6196451;23;20395;-89
2021/12/12 12:04:17;;;;;;;93.10;32.33;;;;;;;;;;6169572;23;20435;-89
2021/12/12 12:06:43;;;;;;;206.23;40.20;;;;;;;;;;6177155;23;20402;-90
2021/12/12 12:09:13;;;;;;;130.87;34.03;;;;;;;;;;6170150;23;20368;-89
2021/12/12 12:11:45;;;;;;;75.57;31.77;;;;;;;;;;6196316;23;20368;-89
2021/12/12 12:14:30;;;;;;;81.60;32.40;;;;;;;;;;6194201;23;20367;-90
2021/12/12 12:16:58;;;;;;;101.93;33.75;;;;;;;;;;6170488;23;20368;-88
2021/12/12 12:19:33;;;;;;;111.63;35.33;;;;;;;;;;6169320;23;20387;-86
2021/12/12 12:22:10;;;;;;;75.80;31.67;;;;;;;;;;6167955;23;20391;-87
2021/12/12 12:24:43;;;;;;;83.35;31.40;;;;;;;;;;6167765;23;20690;-88
2021/12/12 12:27:24;;;;;;;82.63;32.15;;;;;;;;;;6168302;23;20371;-89
2021/12/12 12:30:03;;;;;;;112.80;34.60;;;;;;;;;;6193706;23;20367;-90
2021/12/12 12:33:07;;;;;;;94.47;33.45;;;9.50;99.90;;;;;;6165047;23;20367;-77
2021/12/12 12:35:51;;;;;;;86.90;32.25;;;;;;;;;;6180847;23;20363;-77
2021/12/12 12:38:37;;;;;;;109.95;34.55;;;;;;;;;;6155108;23;20367;-78
2021/12/12 12:41:15;;;;;;;82.97;31.30;;;;;;;;;;6159929;23;20367;-78
2021/12/12 12:44:00;;;;;;;82.07;31.50;;;;;;;;;;6161630;23;20363;-76
2021/12/12 12:46:26;;;;;;;89.20;31.43;;;;;;;;;;6185610;23;20446;-78
2021/12/12 12:48:52;;;;;;;148.93;35.42;;;;;;;;;;6184859;23;20395;-77
2021/12/12 12:51:23;;;;;;;94.47;32.87;;;;;;;;;;6159934;23;20383;-75
2021/12/12 12:54:07;;;;;;;91.07;31.73;;;;;;;;;;6159283;23;20375;-89
2021/12/12 12:56:52;;;;;;;82.90;31.02;;;;;;;;;;6159267;23;20371;-77
2021/12/12 12:59:37;;;;;;;83.45;30.30;;;;;;;;;;6160382;23;20394;-78
2021/12/12 13:02:12;;;;;;;79.23;29.70;;;;;;;;;;6184915;23;20370;-87
2021/12/12 13:04:58;;;;;;;84.55;30.70;;;;;;;;;;6163642;23;20383;-88
2021/12/12 13:08:02;;;;;;;72.30;28.77;;;;;;;;;;6162213;23;20363;-87
2021/12/12 13:10:31;;;;;;;76.70;29.00;;;;;;;;;;6185535;23;20935;-88
2021/12/12 13:13:16;;;;;;;103.95;31.45;;;;;;;;;;6161798;23;20504;-88
2021/12/12 13:15:48;;;;;;;98.95;31.58;;;;;;;;;;6163227;23;20375;-76
2021/12/12 13:18:18;;;;;;;72.72;28.52;;;;;;;;;;6186973;23;20865;-87
2021/12/12 13:20:44;;;;;;;74.25;28.58;;;;;;;;;;6187621;23;20367;-89
2021/12/12 13:23:10;;;;;;;78.55;29.55;;;;;;;;;;6164748;23;20442;-89
2021/12/12 13:25:40;;;;;;;96.43;30.30;;;;;;;;;;6163779;23;20998;-88
2021/12/12 13:28:18;;;;;;;75.93;28.23;;;;;;;;;;6189623;23;20651;-89
2021/12/12 13:30:59;;;;;;;75.47;29.03;;;;;;;;;;6163831;23;21097;-87
2021/12/12 13:33:25;;;;;;;91.60;30.45;;;;;;;;;;6161146;23;20454;-90
2021/12/12 13:35:51;;;;;;;107.93;32.10;;;;;;;;;;6162325;23;20430;-89
2021/12/12 13:38:23;;;;;;;81.60;29.38;;;;;;;;;;6163387;23;20371;-89
2021/12/12 13:41:08;;;;;;;210.68;38.22;;;;;;;;;;6165896;23;20394;-91
2021/12/12 13:43:57;;;;;;;89.57;29.40;;;;;;;;;;6164246;23;20379;-90
2021/12/12 13:46:37;;;;;;;88.67;29.23;;;;;;;;;;6145139;23;20371;-86
2021/12/12 13:49:13;;;;;;;80.30;28.30;;;;;;;;;;6161287;23;20437;-87
2021/12/12 13:51:44;;;;;;;105.13;30.55;;;;;;;;;;6163729;23;20360;-89
2021/12/12 13:54:29;;;;;;;87.35;28.27;;;;;;;;;;6162802;23;20465;-88
2021/12/12 13:56:55;;;;;;;66.47;25.33;;;;;;;;;;6189624;23;20363;-89
2021/12/12 13:59:57;;;;;;;56.55;23.35;;;10.00;99.90;;;;;;6189152;23;20751;-89
2021/12/12 14:02:24;;;;;;;115.22;29.85;;;;;;;;;;6187624;23;20360;-88
2021/12/12 14:05:14;;;;;;;76.80;26.73;;;;;;;;;;6188890;23;20388;-88
2021/12/12 14:07:59;;;;;;;64.72;25.20;;;;;;;;;;6188620;23;20403;-88
2021/12/12 14:10:28;;;;;;;67.30;25.10;;;;;;;;;;6165055;23;20753;-88
2021/12/12 14:13:06;;;;;;;68.00;25.00;;;;;;;;;;6189671;23;20371;-87
2021/12/12 14:15:35;;;;;;;96.43;25.38;;;;;;;;;;6188762;23;20430;-87
2021/12/12 14:18:02;;;;;;;61.75;22.92;;;;;;;;;;6190444;23;20399;-87
2021/12/12 14:20:35;;;;;;;69.65;24.17;;;;;;;;;;6189006;23;20395;-86
2021/12/12 14:23:03;;;;;;;67.15;24.40;;;;;;;;;;6188548;23;20372;-85
2021/12/12 14:25:29;;;;;;;66.90;23.67;;;;;;;;;;6188008;23;20406;-86
2021/12/12 14:27:56;;;;;;;57.13;21.77;;;;;;;;;;6137974;23;20371;-85
2021/12/12 14:30:24;;;;;;;54.30;21.60;;;;;;;;;;6187695;23;20513;-86
2021/12/12 14:32:57;;;;;;;56.60;21.48;;;;;;;;;;6163551;23;20367;-86
2021/12/12 14:35:25;;;;;;;83.00;23.40;;;;;;;;;;6164995;23;20833;-85
2021/12/12 14:37:53;;;;;;;53.97;20.35;;;;;;;;;;6189749;23;20371;-87
2021/12/12 14:40:24;;;;;;;46.87;18.43;;;;;;;;;;6188357;23;20694;-85
2021/12/12 14:42:52;;;;;;;67.80;20.02;;;;;;;;;;6161987;23;20364;-86
2021/12/12 14:45:20;;;;;;;66.63;19.85;;;;;;;;;;6186171;23;20438;-85
2021/12/12 14:47:48;;;;;;;47.90;18.77;;;;;;;;;;6187301;23;20418;-86
2021/12/12 14:50:23;;;;;;;49.25;19.20;;;;;;;;;;6161562;23;20382;-83
2021/12/12 14:52:55;;;;;;;52.97;18.70;;;;;;;;;;6185346;23;20514;-83
2021/12/12 14:55:23;;;;;;;42.40;17.27;;;;;;;;;;6160928;23;20379;-82
2021/12/12 14:57:52;;;;;;;44.17;17.63;;;;;;;;;;6160744;23;20379;-82
2021/12/12 15:00:18;;;;;;;43.17;17.15;;;;;;;;;;6159165;23;20450;-83
2021/12/12 15:02:54;;;;;;;42.67;16.80;;;;;;;;;;6160816;23;20363;-84